sensor_id;sensor_type;location;lat;lon;timestamp;temperature;humidity
16827;DHT22;8530;49.540;8.576;2022-09-09T00:02:19;17.60;85.60
16827;DHT22;8530;49.540;8.576;2022-09-09T00:04:53;17.60;86.10
16827;DHT22;8530;49.540;8.576;2022-09-09T00:07:27;17.60;86.40
16827;DHT22;8530;49.540;8.576;2022-09-09T00:10:04;17.50;86.60
16827;DHT22;8530;49.540;8.576;2022-09-09T00:12:39;17.50;86.90
16827;DHT22;8530;49.540;8.576;2022-09-09T00:15:12;17.40;87.10
16827;DHT22;8530;49.540;8.576;2022-09-09T00:17:46;17.40;87.50
16827;DHT22;8530;49.540;8.576;2022-09-09T00:20:17;17.40;87.90
16827;DHT22;8530;49.540;8.576;2022-09-09T00:22:50;17.40;88.20
16827;DHT22;8530;49.540;8.576;2022-09-09T00:25:26;17.50;88.50
16827;DHT22;8530;49.540;8.576;2022-09-09T00:27:54;17.60;88.80
16827;DHT22;8530;49.540;8.576;2022-09-09T00:30:23;17.70;89.10
16827;DHT22;8530;49.540;8.576;2022-09-09T00:32:55;17.70;88.80
16827;DHT22;8530;49.540;8.576;2022-09-09T00:35:28;17.80;88.90
16827;DHT22;8530;49.540;8.576;2022-09-09T00:37:58;17.80;89.00
16827;DHT22;8530;49.540;8.576;2022-09-09T00:40:30;17.80;89.00
16827;DHT22;8530;49.540;8.576;2022-09-09T00:43:18;17.90;89.20
16827;DHT22;8530;49.540;8.576;2022-09-09T00:45:59;17.90;89.30
16827;DHT22;8530;49.540;8.576;2022-09-09T00:48:37;18.00;89.40
16827;DHT22;8530;49.540;8.576;2022-09-09T00:51:13;18.00;89.40
16827;DHT22;8530;49.540;8.576;2022-09-09T00:54:00;18.00;89.40
16827;DHT22;8530;49.540;8.576;2022-09-09T00:56:37;18.00;89.50
16827;DHT22;8530;49.540;8.576;2022-09-09T00:59:20;18.00;89.50
16827;DHT22;8530;49.540;8.576;2022-09-09T01:01:49;18.10;89.70
16827;DHT22;8530;49.540;8.576;2022-09-09T01:04:21;18.10;89.60
16827;DHT22;8530;49.540;8.576;2022-09-09T01:06:54;18.20;89.70
16827;DHT22;8530;49.540;8.576;2022-09-09T01:09:27;18.20;89.70
16827;DHT22;8530;49.540;8.576;2022-09-09T01:12:02;18.20;89.70
16827;DHT22;8530;49.540;8.576;2022-09-09T01:14:40;18.20;89.70
16827;DHT22;8530;49.540;8.576;2022-09-09T01:17:13;18.20;89.70
16827;DHT22;8530;49.540;8.576;2022-09-09T01:19:52;18.20;89.80
16827;DHT22;8530;49.540;8.576;2022-09-09T01:22:29;18.20;89.90
16827;DHT22;8530;49.540;8.576;2022-09-09T01:25:20;18.20;89.90
16827;DHT22;8530;49.540;8.576;2022-09-09T01:27:51;18.10;89.90
16827;DHT22;8530;49.540;8.576;2022-09-09T01:30:19;18.10;89.90
16827;DHT22;8530;49.540;8.576;2022-09-09T01:32:49;18.00;89.90
16827;DHT22;8530;49.540;8.576;2022-09-09T01:35:37;18.00;90.00
16827;DHT22;8530;49.540;8.576;2022-09-09T01:38:06;17.90;90.00
16827;DHT22;8530;49.540;8.576;2022-09-09T01:40:33;17.90;90.10
16827;DHT22;8530;49.540;8.576;2022-09-09T01:43:01;17.80;90.10
16827;DHT22;8530;49.540;8.576;2022-09-09T01:45:28;17.80;90.20
16827;DHT22;8530;49.540;8.576;2022-09-09T01:47:56;17.70;90.20
16827;DHT22;8530;49.540;8.576;2022-09-09T01:50:23;17.70;90.30
16827;DHT22;8530;49.540;8.576;2022-09-09T01:52:52;17.70;90.40
16827;DHT22;8530;49.540;8.576;2022-09-09T01:55:28;17.60;90.40
16827;DHT22;8530;49.540;8.576;2022-09-09T01:58:04;17.60;90.50
16827;DHT22;8530;49.540;8.576;2022-09-09T02:00:37;17.60;90.60
16827;DHT22;8530;49.540;8.576;2022-09-09T02:03:11;17.60;90.70
16827;DHT22;8530;49.540;8.576;2022-09-09T02:05:45;17.60;90.80
16827;DHT22;8530;49.540;8.576;2022-09-09T02:08:18;17.60;90.90
16827;DHT22;8530;49.540;8.576;2022-09-09T02:10:53;17.60;90.90
16827;DHT22;8530;49.540;8.576;2022-09-09T02:13:23;17.60;91.00
16827;DHT22;8530;49.540;8.576;2022-09-09T02:15:53;17.60;91.00
16827;DHT22;8530;49.540;8.576;2022-09-09T02:18:26;17.60;91.10
16827;DHT22;8530;49.540;8.576;2022-09-09T02:20:54;17.50;91.10
16827;DHT22;8530;49.540;8.576;2022-09-09T02:23:21;17.50;91.20
16827;DHT22;8530;49.540;8.576;2022-09-09T02:25:49;17.50;91.20
16827;DHT22;8530;49.540;8.576;2022-09-09T02:28:19;17.50;91.30
16827;DHT22;8530;49.540;8.576;2022-09-09T02:30:50;17.50;91.40
16827;DHT22;8530;49.540;8.576;2022-09-09T02:33:24;17.50;91.50
16827;DHT22;8530;49.540;8.576;2022-09-09T02:35:52;17.50;91.50
16827;DHT22;8530;49.540;8.576;2022-09-09T02:38:25;17.40;91.60
16827;DHT22;8530;49.540;8.576;2022-09-09T02:40:53;17.40;91.70
16827;DHT22;8530;49.540;8.576;2022-09-09T02:43:19;17.40;91.80
16827;DHT22;8530;49.540;8.576;2022-09-09T02:45:54;17.30;91.80
16827;DHT22;8530;49.540;8.576;2022-09-09T02:48:31;17.30;92.00
16827;DHT22;8530;49.540;8.576;2022-09-09T02:51:10;17.30;92.10
16827;DHT22;8530;49.540;8.576;2022-09-09T02:53:46;17.30;92.20
16827;DHT22;8530;49.540;8.576;2022-09-09T02:56:16;17.30;92.20
16827;DHT22;8530;49.540;8.576;2022-09-09T02:58:45;17.30;92.30
16827;DHT22;8530;49.540;8.576;2022-09-09T03:01:13;17.30;92.40
16827;DHT22;8530;49.540;8.576;2022-09-09T03:03:40;17.30;92.40
16827;DHT22;8530;49.540;8.576;2022-09-09T03:06:07;17.30;92.50
16827;DHT22;8530;49.540;8.576;2022-09-09T03:08:35;17.20;92.50
16827;DHT22;8530;49.540;8.576;2022-09-09T03:11:02;17.20;92.60
16827;DHT22;8530;49.540;8.576;2022-09-09T03:13:28;17.20;92.60
16827;DHT22;8530;49.540;8.576;2022-09-09T03:15:55;17.10;92.70
16827;DHT22;8530;49.540;8.576;2022-09-09T03:18:24;17.10;92.80
16827;DHT22;8530;49.540;8.576;2022-09-09T03:20:50;17.00;92.80
16827;DHT22;8530;49.540;8.576;2022-09-09T03:23:19;16.90;92.90
16827;DHT22;8530;49.540;8.576;2022-09-09T03:25:47;16.90;93.00
16827;DHT22;8530;49.540;8.576;2022-09-09T03:28:14;16.90;93.10
16827;DHT22;8530;49.540;8.576;2022-09-09T03:30:41;16.80;93.10
16827;DHT22;8530;49.540;8.576;2022-09-09T03:33:08;16.80;93.20
16827;DHT22;8530;49.540;8.576;2022-09-09T03:35:36;16.70;93.60
16827;DHT22;8530;49.540;8.576;2022-09-09T03:38:02;16.70;93.40
16827;DHT22;8530;49.540;8.576;2022-09-09T03:40:29;16.60;93.50
16827;DHT22;8530;49.540;8.576;2022-09-09T03:42:57;16.60;93.60
16827;DHT22;8530;49.540;8.576;2022-09-09T03:45:23;16.60;93.70
16827;DHT22;8530;49.540;8.576;2022-09-09T03:47:50;16.60;93.80
16827;DHT22;8530;49.540;8.576;2022-09-09T03:50:17;16.60;93.90
16827;DHT22;8530;49.540;8.576;2022-09-09T03:52:45;16.50;94.00
16827;DHT22;8530;49.540;8.576;2022-09-09T03:55:13;16.50;94.00
16827;DHT22;8530;49.540;8.576;2022-09-09T03:57:40;16.50;94.10
16827;DHT22;8530;49.540;8.576;2022-09-09T04:00:08;16.50;94.20
16827;DHT22;8530;49.540;8.576;2022-09-09T04:02:36;16.50;94.30
16827;DHT22;8530;49.540;8.576;2022-09-09T04:05:05;16.50;94.30
16827;DHT22;8530;49.540;8.576;2022-09-09T04:07:32;16.50;94.40
16827;DHT22;8530;49.540;8.576;2022-09-09T04:10:00;16.50;94.40
16827;DHT22;8530;49.540;8.576;2022-09-09T04:12:27;16.50;94.50
16827;DHT22;8530;49.540;8.576;2022-09-09T04:14:53;16.50;94.50
16827;DHT22;8530;49.540;8.576;2022-09-09T04:17:20;16.40;94.50
16827;DHT22;8530;49.540;8.576;2022-09-09T04:19:47;16.40;94.60
16827;DHT22;8530;49.540;8.576;2022-09-09T04:22:13;16.40;94.70
16827;DHT22;8530;49.540;8.576;2022-09-09T04:24:41;16.40;94.80
16827;DHT22;8530;49.540;8.576;2022-09-09T04:27:09;16.40;94.90
16827;DHT22;8530;49.540;8.576;2022-09-09T04:29:36;16.40;94.90
16827;DHT22;8530;49.540;8.576;2022-09-09T04:32:02;16.30;94.90
16827;DHT22;8530;49.540;8.576;2022-09-09T04:34:30;16.30;95.00
16827;DHT22;8530;49.540;8.576;2022-09-09T04:36:56;16.30;95.00
16827;DHT22;8530;49.540;8.576;2022-09-09T04:39:23;16.30;95.10
16827;DHT22;8530;49.540;8.576;2022-09-09T04:41:50;16.30;95.20
16827;DHT22;8530;49.540;8.576;2022-09-09T04:44:18;16.30;95.20
16827;DHT22;8530;49.540;8.576;2022-09-09T04:46:44;16.40;95.30
16827;DHT22;8530;49.540;8.576;2022-09-09T04:49:11;16.40;95.30
16827;DHT22;8530;49.540;8.576;2022-09-09T04:51:38;16.50;95.30
16827;DHT22;8530;49.540;8.576;2022-09-09T04:54:04;16.50;95.30
16827;DHT22;8530;49.540;8.576;2022-09-09T04:56:32;16.50;95.30
16827;DHT22;8530;49.540;8.576;2022-09-09T04:58:58;16.60;95.40
16827;DHT22;8530;49.540;8.576;2022-09-09T05:01:26;16.70;95.40
16827;DHT22;8530;49.540;8.576;2022-09-09T05:03:53;16.70;95.40
16827;DHT22;8530;49.540;8.576;2022-09-09T05:06:21;16.80;95.40
16827;DHT22;8530;49.540;8.576;2022-09-09T05:08:48;16.80;95.30
16827;DHT22;8530;49.540;8.576;2022-09-09T05:11:16;16.80;95.20
16827;DHT22;8530;49.540;8.576;2022-09-09T05:13:43;16.90;95.30
16827;DHT22;8530;49.540;8.576;2022-09-09T05:16:10;17.00;95.30
16827;DHT22;8530;49.540;8.576;2022-09-09T05:18:38;17.00;95.20
16827;DHT22;8530;49.540;8.576;2022-09-09T05:21:05;17.10;95.20
16827;DHT22;8530;49.540;8.576;2022-09-09T05:23:32;17.10;95.10
16827;DHT22;8530;49.540;8.576;2022-09-09T05:25:59;17.10;95.00
16827;DHT22;8530;49.540;8.576;2022-09-09T05:28:26;17.10;95.00
16827;DHT22;8530;49.540;8.576;2022-09-09T05:30:57;17.10;95.00
16827;DHT22;8530;49.540;8.576;2022-09-09T05:33:26;17.20;95.00
16827;DHT22;8530;49.540;8.576;2022-09-09T05:35:58;17.30;95.00
16827;DHT22;8530;49.540;8.576;2022-09-09T05:38:25;17.40;94.90
16827;DHT22;8530;49.540;8.576;2022-09-09T05:40:52;17.50;94.90
16827;DHT22;8530;49.540;8.576;2022-09-09T05:43:19;17.60;94.80
16827;DHT22;8530;49.540;8.576;2022-09-09T05:45:46;17.80;94.70
16827;DHT22;8530;49.540;8.576;2022-09-09T05:48:13;17.90;94.60
16827;DHT22;8530;49.540;8.576;2022-09-09T05:50:41;18.00;94.50
16827;DHT22;8530;49.540;8.576;2022-09-09T05:53:09;18.10;94.40
16827;DHT22;8530;49.540;8.576;2022-09-09T05:55:36;18.10;94.20
16827;DHT22;8530;49.540;8.576;2022-09-09T05:58:03;18.10;94.10
16827;DHT22;8530;49.540;8.576;2022-09-09T06:00:30;18.20;94.00
16827;DHT22;8530;49.540;8.576;2022-09-09T06:02:57;18.20;93.90
16827;DHT22;8530;49.540;8.576;2022-09-09T06:05:24;18.30;93.80
16827;DHT22;8530;49.540;8.576;2022-09-09T06:07:52;18.40;93.70
16827;DHT22;8530;49.540;8.576;2022-09-09T06:10:21;18.50;93.60
16827;DHT22;8530;49.540;8.576;2022-09-09T06:12:47;18.60;93.50
16827;DHT22;8530;49.540;8.576;2022-09-09T06:15:14;18.70;93.30
16827;DHT22;8530;49.540;8.576;2022-09-09T06:17:41;18.80;93.10
16827;DHT22;8530;49.540;8.576;2022-09-09T06:20:10;18.80;93.00
16827;DHT22;8530;49.540;8.576;2022-09-09T06:22:39;18.90;92.90
16827;DHT22;8530;49.540;8.576;2022-09-09T06:25:07;18.90;92.80
16827;DHT22;8530;49.540;8.576;2022-09-09T06:27:35;19.00;92.70
16827;DHT22;8530;49.540;8.576;2022-09-09T06:30:03;19.10;92.60
16827;DHT22;8530;49.540;8.576;2022-09-09T06:32:29;19.40;92.80
16827;DHT22;8530;49.540;8.576;2022-09-09T06:34:59;20.90;94.20
16827;DHT22;8530;49.540;8.576;2022-09-09T06:37:26;23.30;94.50
16827;DHT22;8530;49.540;8.576;2022-09-09T06:39:53;25.80;92.70
16827;DHT22;8530;49.540;8.576;2022-09-09T06:42:20;27.10;88.40
16827;DHT22;8530;49.540;8.576;2022-09-09T06:44:48;27.80;81.90
16827;DHT22;8530;49.540;8.576;2022-09-09T06:47:15;28.60;74.40
16827;DHT22;8530;49.540;8.576;2022-09-09T06:49:42;29.80;69.40
16827;DHT22;8530;49.540;8.576;2022-09-09T06:52:09;30.10;63.50
16827;DHT22;8530;49.540;8.576;2022-09-09T06:54:36;29.80;58.70
16827;DHT22;8530;49.540;8.576;2022-09-09T06:57:02;30.20;56.30
16827;DHT22;8530;49.540;8.576;2022-09-09T06:59:32;30.80;54.10
16827;DHT22;8530;49.540;8.576;2022-09-09T07:02:00;30.50;50.70
16827;DHT22;8530;49.540;8.576;2022-09-09T07:04:27;30.50;49.40
16827;DHT22;8530;49.540;8.576;2022-09-09T07:06:53;30.00;47.20
16827;DHT22;8530;49.540;8.576;2022-09-09T07:09:20;29.00;45.70
16827;DHT22;8530;49.540;8.576;2022-09-09T07:11:49;28.10;45.40
16827;DHT22;8530;49.540;8.576;2022-09-09T07:14:17;27.30;45.40
16827;DHT22;8530;49.540;8.576;2022-09-09T07:16:44;26.60;45.60
16827;DHT22;8530;49.540;8.576;2022-09-09T07:19:13;26.10;45.80
16827;DHT22;8530;49.540;8.576;2022-09-09T07:21:40;25.70;46.10
16827;DHT22;8530;49.540;8.576;2022-09-09T07:24:07;25.30;46.30
16827;DHT22;8530;49.540;8.576;2022-09-09T07:26:36;25.00;46.60
16827;DHT22;8530;49.540;8.576;2022-09-09T07:29:04;24.70;46.90
16827;DHT22;8530;49.540;8.576;2022-09-09T07:31:32;24.50;47.60
16827;DHT22;8530;49.540;8.576;2022-09-09T07:33:59;26.00;50.70
16827;DHT22;8530;49.540;8.576;2022-09-09T07:36:29;27.70;50.00
16827;DHT22;8530;49.540;8.576;2022-09-09T07:38:57;27.90;47.20
16827;DHT22;8530;49.540;8.576;2022-09-09T07:41:27;27.50;45.30
16827;DHT22;8530;49.540;8.576;2022-09-09T07:43:55;26.70;44.40
16827;DHT22;8530;49.540;8.576;2022-09-09T07:46:23;26.10;44.50
16827;DHT22;8530;49.540;8.576;2022-09-09T07:48:52;25.50;44.70
16827;DHT22;8530;49.540;8.576;2022-09-09T07:51:22;25.10;45.00
16827;DHT22;8530;49.540;8.576;2022-09-09T07:53:53;24.80;45.40
16827;DHT22;8530;49.540;8.576;2022-09-09T07:56:21;24.60;45.80
16827;DHT22;8530;49.540;8.576;2022-09-09T07:58:49;24.50;46.10
16827;DHT22;8530;49.540;8.576;2022-09-09T08:01:20;24.40;46.30
16827;DHT22;8530;49.540;8.576;2022-09-09T08:03:53;24.50;46.60
16827;DHT22;8530;49.540;8.576;2022-09-09T08:06:19;25.00;47.80
16827;DHT22;8530;49.540;8.576;2022-09-09T08:08:51;25.70;47.80
16827;DHT22;8530;49.540;8.576;2022-09-09T08:11:22;25.80;46.70
16827;DHT22;8530;49.540;8.576;2022-09-09T08:13:49;25.80;46.10
16827;DHT22;8530;49.540;8.576;2022-09-09T08:16:18;25.60;45.60
16827;DHT22;8530;49.540;8.576;2022-09-09T08:18:47;25.40;45.50
16827;DHT22;8530;49.540;8.576;2022-09-09T08:21:16;25.30;45.70
16827;DHT22;8530;49.540;8.576;2022-09-09T08:23:45;25.30;45.70
16827;DHT22;8530;49.540;8.576;2022-09-09T08:26:16;25.10;45.60
16827;DHT22;8530;49.540;8.576;2022-09-09T08:28:43;24.80;45.80
16827;DHT22;8530;49.540;8.576;2022-09-09T08:31:12;24.30;46.00
16827;DHT22;8530;49.540;8.576;2022-09-09T08:33:39;23.90;46.50
16827;DHT22;8530;49.540;8.576;2022-09-09T08:36:09;23.50;47.20
16827;DHT22;8530;49.540;8.576;2022-09-09T08:38:36;23.30;47.90
16827;DHT22;8530;49.540;8.576;2022-09-09T08:41:21;23.10;48.30
16827;DHT22;8530;49.540;8.576;2022-09-09T08:44:00;22.90;49.00
16827;DHT22;8530;49.540;8.576;2022-09-09T08:46:33;22.70;49.70
16827;DHT22;8530;49.540;8.576;2022-09-09T08:49:07;22.80;50.40
16827;DHT22;8530;49.540;8.576;2022-09-09T08:51:40;22.90;51.00
16827;DHT22;8530;49.540;8.576;2022-09-09T08:54:09;23.30;51.50
16827;DHT22;8530;49.540;8.576;2022-09-09T08:56:37;23.60;51.70
16827;DHT22;8530;49.540;8.576;2022-09-09T08:59:04;24.00;51.90
16827;DHT22;8530;49.540;8.576;2022-09-09T09:04:37;24.60;51.60
16827;DHT22;8530;49.540;8.576;2022-09-09T09:07:13;24.80;51.40
16827;DHT22;8530;49.540;8.576;2022-09-09T09:09:48;24.80;51.00
16827;DHT22;8530;49.540;8.576;2022-09-09T09:12:23;24.70;50.70
16827;DHT22;8530;49.540;8.576;2022-09-09T09:14:50;24.60;50.50
16827;DHT22;8530;49.540;8.576;2022-09-09T09:17:18;24.60;50.60
16827;DHT22;8530;49.540;8.576;2022-09-09T09:19:46;24.80;50.70
16827;DHT22;8530;49.540;8.576;2022-09-09T09:22:17;24.90;50.50
16827;DHT22;8530;49.540;8.576;2022-09-09T09:24:50;25.30;50.30
16827;DHT22;8530;49.540;8.576;2022-09-09T09:27:26;25.80;50.00
16827;DHT22;8530;49.540;8.576;2022-09-09T09:29:57;26.10;49.30
16827;DHT22;8530;49.540;8.576;2022-09-09T09:32:27;26.10;48.60
16827;DHT22;8530;49.540;8.576;2022-09-09T09:34:56;25.90;48.20
16827;DHT22;8530;49.540;8.576;2022-09-09T09:37:27;25.90;48.10
16827;DHT22;8530;49.540;8.576;2022-09-09T09:39:54;25.80;48.00
16827;DHT22;8530;49.540;8.576;2022-09-09T09:42:22;25.60;48.00
16827;DHT22;8530;49.540;8.576;2022-09-09T09:44:49;25.40;48.00
16827;DHT22;8530;49.540;8.576;2022-09-09T09:47:17;25.30;48.10
16827;DHT22;8530;49.540;8.576;2022-09-09T09:50:02;25.30;48.10
16827;DHT22;8530;49.540;8.576;2022-09-09T09:52:31;25.20;48.20
16827;DHT22;8530;49.540;8.576;2022-09-09T09:55:03;25.20;48.30
16827;DHT22;8530;49.540;8.576;2022-09-09T09:57:33;25.10;48.20
16827;DHT22;8530;49.540;8.576;2022-09-09T10:00:03;24.90;48.00
16827;DHT22;8530;49.540;8.576;2022-09-09T10:02:38;24.60;47.80
16827;DHT22;8530;49.540;8.576;2022-09-09T10:05:14;24.20;47.70
16827;DHT22;8530;49.540;8.576;2022-09-09T10:07:41;23.70;47.80
16827;DHT22;8530;49.540;8.576;2022-09-09T10:10:13;23.40;48.10
16827;DHT22;8530;49.540;8.576;2022-09-09T10:12:52;23.10;48.50
16827;DHT22;8530;49.540;8.576;2022-09-09T10:15:34;22.80;49.20
16827;DHT22;8530;49.540;8.576;2022-09-09T10:21:06;21.90;50.10
16827;DHT22;8530;49.540;8.576;2022-09-09T10:23:47;21.70;50.80
16827;DHT22;8530;49.540;8.576;2022-09-09T10:26:28;21.70;51.70
16827;DHT22;8530;49.540;8.576;2022-09-09T10:29:12;21.90;52.40
16827;DHT22;8530;49.540;8.576;2022-09-09T10:31:46;22.30;53.60
16827;DHT22;8530;49.540;8.576;2022-09-09T10:34:32;22.60;53.20
16827;DHT22;8530;49.540;8.576;2022-09-09T10:37:06;23.00;53.50
16827;DHT22;8530;49.540;8.576;2022-09-09T10:39:38;23.50;53.40
16827;DHT22;8530;49.540;8.576;2022-09-09T10:42:07;23.90;53.20
16827;DHT22;8530;49.540;8.576;2022-09-09T10:44:55;24.30;52.90
16827;DHT22;8530;49.540;8.576;2022-09-09T10:47:41;24.40;52.50
16827;DHT22;8530;49.540;8.576;2022-09-09T10:50:23;24.40;52.20
16827;DHT22;8530;49.540;8.576;2022-09-09T10:53:02;24.40;52.30
16827;DHT22;8530;49.540;8.576;2022-09-09T10:55:37;24.40;52.40
16827;DHT22;8530;49.540;8.576;2022-09-09T10:58:09;24.30;52.40
16827;DHT22;8530;49.540;8.576;2022-09-09T11:00:41;24.30;52.30
16827;DHT22;8530;49.540;8.576;2022-09-09T11:03:15;24.40;52.90
16827;DHT22;8530;49.540;8.576;2022-09-09T11:05:46;24.40;52.30
16827;DHT22;8530;49.540;8.576;2022-09-09T11:08:18;24.40;52.10
16827;DHT22;8530;49.540;8.576;2022-09-09T11:10:49;24.40;52.00
16827;DHT22;8530;49.540;8.576;2022-09-09T11:13:24;24.50;52.00
16827;DHT22;8530;49.540;8.576;2022-09-09T11:15:58;24.50;51.80
16827;DHT22;8530;49.540;8.576;2022-09-09T11:18:29;24.60;51.70
16827;DHT22;8530;49.540;8.576;2022-09-09T11:21:01;24.70;51.50
16827;DHT22;8530;49.540;8.576;2022-09-09T11:23:33;24.80;51.20
16827;DHT22;8530;49.540;8.576;2022-09-09T11:26:03;25.00;50.80
16827;DHT22;8530;49.540;8.576;2022-09-09T11:28:46;25.00;50.00
16827;DHT22;8530;49.540;8.576;2022-09-09T11:31:43;25.10;49.70
16827;DHT22;8530;49.540;8.576;2022-09-09T11:34:23;25.20;49.20
16827;DHT22;8530;49.540;8.576;2022-09-09T11:37:17;25.20;49.00
16827;DHT22;8530;49.540;8.576;2022-09-09T11:40:09;25.10;48.90
16827;DHT22;8530;49.540;8.576;2022-09-09T11:42:40;25.30;48.90
16827;DHT22;8530;49.540;8.576;2022-09-09T11:45:20;25.60;48.40
16827;DHT22;8530;49.540;8.576;2022-09-09T11:47:54;26.00;47.80
16827;DHT22;8530;49.540;8.576;2022-09-09T11:50:29;25.90;47.10
16827;DHT22;8530;49.540;8.576;2022-09-09T11:53:18;25.80;46.70
16827;DHT22;8530;49.540;8.576;2022-09-09T11:55:59;25.80;46.50
16827;DHT22;8530;49.540;8.576;2022-09-09T11:58:26;25.80;46.50
16827;DHT22;8530;49.540;8.576;2022-09-09T12:00:54;25.80;46.40
16827;DHT22;8530;49.540;8.576;2022-09-09T12:03:35;25.80;46.10
16827;DHT22;8530;49.540;8.576;2022-09-09T12:06:13;25.80;45.50
16827;DHT22;8530;49.540;8.576;2022-09-09T12:08:42;25.80;45.30
16827;DHT22;8530;49.540;8.576;2022-09-09T12:11:11;25.80;45.20
16827;DHT22;8530;49.540;8.576;2022-09-09T12:13:37;25.80;45.00
16827;DHT22;8530;49.540;8.576;2022-09-09T12:16:04;25.90;44.80
16827;DHT22;8530;49.540;8.576;2022-09-09T12:18:34;26.00;44.50
16827;DHT22;8530;49.540;8.576;2022-09-09T12:21:06;26.00;44.20
16827;DHT22;8530;49.540;8.576;2022-09-09T12:23:43;25.90;43.70
16827;DHT22;8530;49.540;8.576;2022-09-09T12:26:28;25.70;43.40
16827;DHT22;8530;49.540;8.576;2022-09-09T12:29:03;25.50;43.40
16827;DHT22;8530;49.540;8.576;2022-09-09T12:31:38;25.20;43.50
16827;DHT22;8530;49.540;8.576;2022-09-09T12:34:15;24.80;42.90
16827;DHT22;8530;49.540;8.576;2022-09-09T12:36:44;24.10;43.20
16827;DHT22;8530;49.540;8.576;2022-09-09T12:39:19;23.40;43.40
16827;DHT22;8530;49.540;8.576;2022-09-09T12:41:51;22.70;43.90
16827;DHT22;8530;49.540;8.576;2022-09-09T12:44:23;22.30;44.50
16827;DHT22;8530;49.540;8.576;2022-09-09T12:46:51;21.90;45.00
16827;DHT22;8530;49.540;8.576;2022-09-09T12:49:34;21.60;45.70
16827;DHT22;8530;49.540;8.576;2022-09-09T12:52:03;21.50;46.80
16827;DHT22;8530;49.540;8.576;2022-09-09T12:54:31;21.50;47.20
16827;DHT22;8530;49.540;8.576;2022-09-09T12:56:59;21.40;47.60
16827;DHT22;8530;49.540;8.576;2022-09-09T12:59:35;21.40;48.20
16827;DHT22;8530;49.540;8.576;2022-09-09T13:02:02;21.50;48.80
16827;DHT22;8530;49.540;8.576;2022-09-09T13:04:39;21.70;49.30
16827;DHT22;8530;49.540;8.576;2022-09-09T13:07:06;21.80;49.60
16827;DHT22;8530;49.540;8.576;2022-09-09T13:09:37;21.80;49.90
16827;DHT22;8530;49.540;8.576;2022-09-09T13:12:04;21.70;50.20
16827;DHT22;8530;49.540;8.576;2022-09-09T13:14:35;21.60;50.60
16827;DHT22;8530;49.540;8.576;2022-09-09T13:17:04;21.50;51.10
16827;DHT22;8530;49.540;8.576;2022-09-09T13:19:35;21.30;51.70
16827;DHT22;8530;49.540;8.576;2022-09-09T13:22:13;21.10;52.40
16827;DHT22;8530;49.540;8.576;2022-09-09T13:24:40;20.90;53.40
16827;DHT22;8530;49.540;8.576;2022-09-09T13:27:24;20.70;54.20
16827;DHT22;8530;49.540;8.576;2022-09-09T13:29:54;20.40;55.20
16827;DHT22;8530;49.540;8.576;2022-09-09T13:32:23;20.20;55.50
16827;DHT22;8530;49.540;8.576;2022-09-09T13:34:51;20.10;56.10
16827;DHT22;8530;49.540;8.576;2022-09-09T13:37:23;19.90;56.80
16827;DHT22;8530;49.540;8.576;2022-09-09T13:39:53;19.80;57.80
16827;DHT22;8530;49.540;8.576;2022-09-09T13:42:26;19.70;58.20
16827;DHT22;8530;49.540;8.576;2022-09-09T13:44:55;19.80;59.00
16827;DHT22;8530;49.540;8.576;2022-09-09T13:47:29;20.00;59.50
16827;DHT22;8530;49.540;8.576;2022-09-09T13:49:56;20.20;60.00
16827;DHT22;8530;49.540;8.576;2022-09-09T13:52:31;20.50;60.10
16827;DHT22;8530;49.540;8.576;2022-09-09T13:54:58;20.90;60.60
16827;DHT22;8530;49.540;8.576;2022-09-09T13:57:25;21.30;60.80
16827;DHT22;8530;49.540;8.576;2022-09-09T13:59:53;21.60;60.80
16827;DHT22;8530;49.540;8.576;2022-09-09T14:02:21;22.00;60.90
16827;DHT22;8530;49.540;8.576;2022-09-09T14:04:48;22.20;60.60
16827;DHT22;8530;49.540;8.576;2022-09-09T14:07:17;22.20;60.30
16827;DHT22;8530;49.540;8.576;2022-09-09T14:09:45;22.30;60.20
16827;DHT22;8530;49.540;8.576;2022-09-09T14:12:16;22.40;60.30
16827;DHT22;8530;49.540;8.576;2022-09-09T14:14:43;22.40;60.20
16827;DHT22;8530;49.540;8.576;2022-09-09T14:17:10;22.30;60.20
16827;DHT22;8530;49.540;8.576;2022-09-09T14:19:37;22.10;60.50
16827;DHT22;8530;49.540;8.576;2022-09-09T14:22:03;22.00;61.10
16827;DHT22;8530;49.540;8.576;2022-09-09T14:24:30;22.10;61.80
16827;DHT22;8530;49.540;8.576;2022-09-09T14:26:58;22.10;62.30
16827;DHT22;8530;49.540;8.576;2022-09-09T14:29:25;22.30;62.60
16827;DHT22;8530;49.540;8.576;2022-09-09T14:31:52;22.20;62.50
16827;DHT22;8530;49.540;8.576;2022-09-09T14:34:18;22.10;62.90
16827;DHT22;8530;49.540;8.576;2022-09-09T14:36:45;21.90;63.20
16827;DHT22;8530;49.540;8.576;2022-09-09T14:39:12;21.80;63.60
16827;DHT22;8530;49.540;8.576;2022-09-09T14:41:38;21.80;64.20
16827;DHT22;8530;49.540;8.576;2022-09-09T14:44:06;21.80;64.50
16827;DHT22;8530;49.540;8.576;2022-09-09T14:46:33;21.70;65.10
16827;DHT22;8530;49.540;8.576;2022-09-09T14:49:00;21.70;65.20
16827;DHT22;8530;49.540;8.576;2022-09-09T14:51:27;21.70;65.10
16827;DHT22;8530;49.540;8.576;2022-09-09T14:53:55;21.50;64.90
16827;DHT22;8530;49.540;8.576;2022-09-09T14:56:24;21.40;65.00
16827;DHT22;8530;49.540;8.576;2022-09-09T14:58:53;21.30;65.20
16827;DHT22;8530;49.540;8.576;2022-09-09T15:01:22;21.10;65.30
16827;DHT22;8530;49.540;8.576;2022-09-09T15:03:50;20.90;65.40
16827;DHT22;8530;49.540;8.576;2022-09-09T15:06:18;20.80;65.70
16827;DHT22;8530;49.540;8.576;2022-09-09T15:08:46;20.60;65.80
16827;DHT22;8530;49.540;8.576;2022-09-09T15:11:14;20.50;66.10
16827;DHT22;8530;49.540;8.576;2022-09-09T15:13:42;20.40;66.50
16827;DHT22;8530;49.540;8.576;2022-09-09T15:16:12;20.30;66.80
16827;DHT22;8530;49.540;8.576;2022-09-09T15:18:40;20.20;67.30
16827;DHT22;8530;49.540;8.576;2022-09-09T15:21:08;20.10;67.70
16827;DHT22;8530;49.540;8.576;2022-09-09T15:23:35;20.00;68.20
16827;DHT22;8530;49.540;8.576;2022-09-09T15:26:03;19.90;68.80
16827;DHT22;8530;49.540;8.576;2022-09-09T15:28:31;19.90;69.60
16827;DHT22;8530;49.540;8.576;2022-09-09T15:30:59;19.90;70.30
16827;DHT22;8530;49.540;8.576;2022-09-09T15:33:31;19.80;71.00
16827;DHT22;8530;49.540;8.576;2022-09-09T15:35:59;19.70;71.30
16827;DHT22;8530;49.540;8.576;2022-09-09T15:38:26;19.60;71.60
16827;DHT22;8530;49.540;8.576;2022-09-09T15:40:53;19.40;71.90
16827;DHT22;8530;49.540;8.576;2022-09-09T15:43:21;19.30;72.20
16827;DHT22;8530;49.540;8.576;2022-09-09T15:45:52;19.20;72.60
16827;DHT22;8530;49.540;8.576;2022-09-09T15:48:30;19.10;73.00
16827;DHT22;8530;49.540;8.576;2022-09-09T15:51:02;18.90;73.40
16827;DHT22;8530;49.540;8.576;2022-09-09T15:53:29;18.80;73.90
16827;DHT22;8530;49.540;8.576;2022-09-09T15:55:57;18.70;74.40
16827;DHT22;8530;49.540;8.576;2022-09-09T15:58:24;18.70;75.10
16827;DHT22;8530;49.540;8.576;2022-09-09T16:00:51;18.60;75.60
16827;DHT22;8530;49.540;8.576;2022-09-09T16:03:18;18.60;76.20
16827;DHT22;8530;49.540;8.576;2022-09-09T16:05:44;18.60;76.80
16827;DHT22;8530;49.540;8.576;2022-09-09T16:08:18;18.60;77.40
16827;DHT22;8530;49.540;8.576;2022-09-09T16:10:45;18.60;78.00
16827;DHT22;8530;49.540;8.576;2022-09-09T16:13:12;18.60;78.40